createdAt,value
2019-02-26T00:02:28.348Z,33.27
2019-02-26T00:05:00.442Z,32.50
2019-02-26T00:07:32.162Z,32.67
2019-02-26T00:10:04.630Z,33.53
2019-02-26T00:12:35.675Z,31.03
2019-02-26T00:15:07.611Z,33.57
2019-02-26T00:17:40.461Z,33.40
2019-02-26T00:20:12.690Z,34.57
2019-02-26T00:22:42.879Z,31.80
2019-02-26T00:25:15.485Z,35.80
2019-02-26T00:27:47.635Z,32.60
2019-02-26T00:30:18.617Z,34.77
2019-02-26T00:32:49.533Z,30.00
2019-02-26T00:35:21.210Z,31.80
2019-02-26T00:37:53.453Z,36.47
2019-02-26T00:40:24.682Z,38.10
2019-02-26T00:42:57.523Z,33.67
2019-02-26T00:45:29.475Z,35.80
2019-02-26T00:48:00.045Z,35.90
2019-02-26T00:50:32.646Z,39.87
2019-02-26T00:53:03.983Z,33.03
2019-02-26T00:55:35.668Z,37.85
2019-02-26T00:58:08.437Z,38.03
2019-02-26T01:00:39.109Z,33.10
2019-02-26T01:03:11.413Z,36.47
2019-02-26T01:05:43.231Z,32.43
2019-02-26T01:08:15.758Z,34.20
2019-02-26T01:10:46.683Z,35.33
2019-02-26T01:13:17.353Z,36.67
2019-02-26T01:15:47.969Z,32.60
2019-02-26T01:18:20.716Z,37.13
2019-02-26T01:20:52.671Z,33.63
2019-02-26T01:23:24.250Z,33.73
2019-02-26T01:25:55.903Z,37.23
2019-02-26T01:28:27.055Z,35.13
2019-02-26T01:31:00.371Z,35.77
2019-02-26T01:33:32.162Z,32.53
2019-02-26T01:36:03.469Z,34.30
2019-02-26T01:38:37.407Z,33.53
2019-02-26T01:41:08.663Z,36.97
2019-02-26T01:43:39.184Z,35.67
2019-02-26T01:46:11.712Z,36.43
2019-02-26T01:48:41.999Z,35.80
2019-02-26T01:51:12.815Z,39.13
2019-02-26T01:53:46.413Z,37.67
2019-02-26T01:56:17.754Z,37.10
2019-02-26T01:58:56.411Z,32.87
2019-02-26T02:01:23.290Z,38.50
2019-02-26T02:03:53.847Z,34.23
2019-02-26T02:06:25.091Z,34.13
2019-02-26T02:08:55.895Z,32.20
2019-02-26T02:11:28.584Z,38.37
2019-02-26T02:14:01.873Z,36.97
2019-02-26T02:16:31.376Z,32.43
2019-02-26T02:19:03.037Z,35.57
2019-02-26T02:21:35.660Z,38.80
2019-02-26T02:24:10.782Z,37.23
2019-02-26T02:26:41.040Z,39.00
2019-02-26T02:29:12.676Z,37.60
2019-02-26T02:31:43.274Z,36.70
2019-02-26T02:34:13.790Z,42.60
2019-02-26T02:36:44.290Z,40.00
2019-02-26T02:39:15.755Z,43.03
2019-02-26T02:41:50.885Z,43.20
2019-02-26T02:44:20.580Z,40.00
2019-02-26T02:46:52.228Z,36.30
2019-02-26T02:49:22.740Z,35.90
2019-02-26T02:51:53.350Z,40.50
2019-02-26T02:54:26.022Z,41.80
2019-02-26T02:56:56.698Z,39.90
2019-02-26T02:59:30.881Z,37.17
2019-02-26T03:02:00.661Z,34.67
2019-02-26T03:04:34.574Z,38.90
2019-02-26T03:07:03.737Z,38.07
2019-02-26T03:09:37.056Z,34.77
2019-02-26T03:12:06.734Z,36.20
2019-02-26T03:14:39.172Z,34.17
2019-02-26T03:17:11.157Z,33.40
2019-02-26T03:19:43.665Z,35.93
2019-02-26T03:22:17.393Z,33.00
2019-02-26T03:24:48.311Z,39.70
2019-02-26T03:27:18.915Z,38.47
2019-02-26T03:29:50.017Z,37.80
2019-02-26T03:32:21.570Z,36.37
2019-02-26T03:34:52.340Z,38.00
2019-02-26T03:37:23.366Z,38.33
2019-02-26T03:39:57.319Z,35.87
2019-02-26T03:42:27.423Z,33.93
2019-02-26T03:44:59.654Z,38.33
2019-02-26T03:47:30.556Z,30.57
2019-02-26T03:50:01.105Z,34.23
2019-02-26T03:52:32.220Z,32.40
2019-02-26T03:55:04.323Z,36.07
2019-02-26T03:57:35.114Z,35.90
2019-02-26T04:00:08.782Z,35.67
2019-02-26T04:02:39.927Z,35.87
2019-02-26T04:05:11.429Z,39.00
2019-02-26T04:07:42.082Z,36.17
2019-02-26T04:10:12.824Z,37.00
2019-02-26T04:12:45.037Z,43.20
2019-02-26T04:15:16.356Z,37.40
2019-02-26T04:17:46.994Z,39.73
2019-02-26T04:20:17.655Z,41.83
2019-02-26T04:22:50.082Z,50.40
2019-02-26T04:25:31.389Z,45.73
2019-02-26T04:28:40.337Z,48.23
2019-02-26T04:32:05.485Z,47.17
2019-02-26T04:35:19.478Z,49.90
2019-02-26T04:38:45.596Z,66.07
2019-02-26T04:41:29.690Z,41.80
2019-02-26T04:44:52.349Z,34.80
2019-02-26T04:47:33.660Z,77.20
2019-02-26T04:50:05.508Z,34.80
2019-02-26T04:52:37.768Z,43.13
2019-02-26T04:55:07.825Z,40.70
2019-02-26T04:57:40.177Z,39.00
2019-02-26T05:00:10.827Z,43.43
2019-02-26T05:02:41.423Z,39.47
2019-02-26T05:05:11.859Z,39.80
2019-02-26T05:07:45.970Z,37.20
2019-02-26T05:10:14.874Z,38.27
2019-02-26T05:12:45.439Z,37.13
2019-02-26T05:15:18.078Z,36.27
2019-02-26T05:17:48.254Z,38.77
2019-02-26T05:20:19.042Z,32.20
2019-02-26T05:22:52.165Z,33.30
2019-02-26T05:25:22.113Z,37.13
2019-02-26T05:27:52.864Z,44.27
2019-02-26T05:30:23.478Z,37.10
2019-02-26T05:32:57.084Z,36.53
2019-02-26T05:35:26.308Z,39.73
2019-02-26T05:38:00.362Z,41.70
2019-02-26T05:40:29.014Z,36.50
2019-02-26T05:43:01.484Z,37.70
2019-02-26T05:45:34.926Z,49.77
2019-02-26T05:48:04.109Z,38.50
2019-02-26T05:50:35.558Z,32.97
2019-02-26T05:53:07.609Z,38.63
2019-02-26T05:55:41.642Z,35.20
2019-02-26T05:58:15.164Z,37.43
2019-02-26T06:00:43.618Z,35.17
2019-02-26T06:03:16.306Z,40.40
2019-02-26T06:05:49.010Z,39.90
2019-02-26T06:08:18.799Z,37.63
2019-02-26T06:10:49.340Z,39.27
2019-02-26T06:13:19.870Z,37.63
2019-02-26T06:15:51.421Z,39.37
2019-02-26T06:18:22.749Z,44.57
2019-02-26T06:20:54.055Z,41.83
2019-02-26T06:23:28.045Z,37.47
2019-02-26T06:25:58.950Z,45.83
2019-02-26T06:28:35.552Z,45.40
2019-02-26T06:31:02.424Z,50.43
2019-02-26T06:33:36.072Z,45.20
2019-02-26T06:36:06.480Z,41.43
2019-02-26T06:38:37.136Z,45.03
2019-02-26T06:41:07.694Z,42.20
2019-02-26T06:43:39.968Z,38.93
2019-02-26T06:46:12.295Z,42.67
2019-02-26T06:48:42.909Z,43.87
2019-02-26T06:51:13.507Z,43.97
2019-02-26T06:53:47.083Z,36.23
2019-02-26T06:56:17.920Z,37.77
2019-02-26T06:58:49.254Z,34.57
2019-02-26T07:01:20.185Z,36.47
2019-02-26T07:03:51.013Z,37.67
2019-02-26T07:06:23.420Z,37.67
2019-02-26T07:08:54.064Z,39.30
2019-02-26T07:11:26.202Z,41.40
2019-02-26T07:13:58.337Z,37.77
2019-02-26T07:16:29.024Z,40.47
2019-02-26T07:19:01.127Z,38.10
2019-02-26T07:21:31.944Z,36.13
2019-02-26T07:24:03.568Z,37.97
2019-02-26T07:26:36.176Z,37.23
2019-02-26T07:29:08.200Z,40.80
2019-02-26T07:31:39.579Z,53.50
2019-02-26T07:34:10.244Z,45.37
2019-02-26T07:36:41.171Z,40.60
2019-02-26T07:39:15.332Z,43.13
2019-02-26T07:41:47.176Z,43.40
2019-02-26T07:44:18.872Z,40.90
2019-02-26T07:46:50.301Z,46.67
2019-02-26T07:49:21.010Z,45.40
2019-02-26T07:51:51.980Z,37.77
2019-02-26T07:54:22.739Z,41.43
2019-02-26T07:56:55.023Z,43.97
2019-02-26T07:59:27.814Z,43.27
2019-02-26T08:01:58.303Z,46.87
2019-02-26T08:04:28.905Z,49.37
2019-02-26T08:07:01.352Z,41.43
2019-02-26T08:09:31.830Z,46.67
2019-02-26T08:12:04.420Z,57.07
2019-02-26T08:14:34.999Z,57.93
2019-02-26T08:17:07.780Z,51.07
2019-02-26T08:19:39.873Z,54.47
2019-02-26T08:22:10.634Z,53.40
2019-02-26T08:24:41.254Z,51.47
2019-02-26T08:27:13.548Z,49.23
2019-02-26T08:29:44.120Z,55.20
2019-02-26T08:32:18.140Z,53.23
2019-02-26T08:34:46.889Z,58.17
2019-02-26T08:37:17.509Z,46.07
2019-02-26T08:39:48.074Z,56.80
2019-02-26T08:42:18.674Z,55.93
2019-02-26T08:44:51.089Z,47.33
2019-02-26T08:47:23.376Z,48.97
2019-02-26T08:49:53.694Z,45.87
2019-02-26T08:52:26.745Z,55.43
2019-02-26T08:54:56.534Z,52.47
2019-02-26T08:57:27.169Z,47.83
2019-02-26T08:59:57.881Z,48.60
2019-02-26T09:02:28.499Z,47.07
2019-02-26T09:04:59.729Z,49.63
2019-02-26T09:07:31.759Z,41.13
2019-02-26T09:10:02.554Z,42.60
2019-02-26T09:12:33.010Z,46.80
2019-02-26T09:15:03.564Z,44.30
2019-02-26T09:17:34.838Z,41.40
2019-02-26T09:20:10.246Z,43.67
2019-02-26T09:22:45.638Z,44.97
2019-02-26T09:25:13.584Z,42.93
2019-02-26T09:27:44.109Z,39.17
2019-02-26T09:30:16.454Z,42.40
2019-02-26T09:32:47.099Z,35.33
2019-02-26T09:35:21.759Z,39.53
2019-02-26T09:37:52.273Z,43.00
2019-02-26T09:40:23.544Z,40.27
2019-02-26T09:42:57.259Z,40.80
2019-02-26T09:45:29.813Z,33.43
2019-02-26T09:48:01.086Z,36.57
2019-02-26T09:50:31.863Z,37.50
2019-02-26T09:53:02.644Z,39.00
2019-02-26T09:55:33.404Z,40.17
2019-02-26T09:58:03.959Z,36.87
2019-02-26T10:00:34.494Z,38.63
2019-02-26T10:03:07.826Z,43.20
2019-02-26T10:05:37.349Z,45.80
2019-02-26T10:08:07.974Z,38.70
2019-02-26T10:10:39.840Z,44.47
2019-02-26T10:13:10.604Z,48.07
2019-02-26T10:15:42.821Z,46.27
2019-02-26T10:18:14.119Z,47.77
2019-02-26T10:20:45.620Z,45.03
2019-02-26T10:23:19.216Z,47.37
2019-02-26T10:25:52.982Z,50.57
2019-02-26T10:28:22.393Z,51.03
2019-02-26T10:30:55.020Z,49.57
2019-02-26T10:33:25.594Z,45.40
2019-02-26T10:35:56.379Z,50.17
2019-02-26T10:38:29.573Z,51.00
2019-02-26T10:41:01.654Z,47.47
2019-02-26T10:43:31.480Z,48.43
2019-02-26T10:46:01.969Z,50.87
2019-02-26T10:48:32.760Z,50.97
2019-02-26T10:51:06.014Z,53.27
2019-02-26T10:53:35.706Z,52.03
2019-02-26T10:56:06.350Z,44.60
2019-02-26T10:58:37.035Z,46.30
2019-02-26T11:01:08.159Z,49.10
2019-02-26T11:03:43.417Z,47.70
2019-02-26T11:06:15.914Z,52.07
2019-02-26T11:08:43.304Z,46.67
2019-02-26T11:11:16.062Z,51.00
2019-02-26T11:13:50.967Z,51.43
2019-02-26T11:16:24.870Z,49.83
2019-02-26T11:18:50.740Z,45.80
2019-02-26T11:21:21.355Z,52.03
2019-02-26T11:23:52.144Z,47.90
2019-02-26T11:26:22.684Z,48.70
2019-02-26T11:28:53.255Z,49.37
2019-02-26T11:31:25.442Z,45.00
2019-02-26T11:33:57.276Z,48.33
2019-02-26T11:36:30.416Z,50.70
2019-02-26T11:39:02.253Z,52.23
2019-02-26T11:41:35.435Z,52.93
2019-02-26T11:44:09.993Z,57.43
2019-02-26T11:46:37.719Z,54.13
2019-02-26T11:49:09.465Z,52.10
2019-02-26T11:51:42.463Z,48.77
2019-02-26T11:54:14.926Z,51.67
2019-02-26T11:56:47.170Z,47.10
2019-02-26T11:59:19.339Z,46.23
2019-02-26T12:01:49.704Z,51.47
2019-02-26T12:04:20.709Z,50.80
2019-02-26T12:06:51.306Z,49.07
2019-02-26T12:09:21.859Z,48.97
2019-02-26T12:11:52.534Z,53.17
2019-02-26T12:14:23.274Z,49.70
2019-02-26T12:16:53.840Z,48.57
2019-02-26T12:19:25.666Z,49.33
2019-02-26T12:21:57.458Z,53.93
2019-02-26T12:24:30.778Z,48.63
2019-02-26T12:27:01.514Z,48.80
2019-02-26T12:29:32.079Z,51.97
2019-02-26T12:32:04.806Z,49.77
2019-02-26T12:34:35.918Z,50.30
2019-02-26T12:37:11.180Z,49.17
2019-02-26T12:39:39.299Z,49.73
2019-02-26T12:42:10.677Z,52.13
2019-02-26T12:44:45.283Z,47.43
2019-02-26T12:47:17.433Z,52.93
2019-02-26T12:49:47.204Z,49.97
2019-02-26T12:52:21.252Z,50.53
2019-02-26T12:54:50.574Z,48.40
2019-02-26T12:57:23.781Z,52.03
2019-02-26T12:59:53.679Z,46.13
2019-02-26T13:02:25.636Z,43.30
2019-02-26T13:04:56.654Z,39.47
2019-02-26T13:07:27.249Z,44.43
2019-02-26T13:10:00.998Z,45.40
2019-02-26T13:12:32.372Z,49.37
2019-02-26T13:15:05.647Z,45.70
2019-02-26T13:17:35.234Z,48.27
2019-02-26T13:20:11.036Z,46.53
2019-02-26T13:22:39.873Z,44.93
2019-02-26T13:25:15.594Z,38.23
2019-02-26T13:27:47.270Z,42.10
2019-02-26T13:30:22.079Z,30.77
2019-02-26T13:33:00.424Z,40.20
2019-02-26T13:35:25.059Z,38.43
2019-02-26T13:37:55.744Z,44.83
2019-02-26T13:40:26.464Z,33.90
2019-02-26T13:45:29.766Z,32.87
2019-02-26T13:48:01.405Z,35.70
2019-02-26T13:50:32.764Z,36.43
2019-02-26T13:53:05.324Z,40.20
2019-02-26T13:55:35.866Z,35.47
2019-02-26T13:58:11.669Z,40.83
2019-02-26T14:00:38.855Z,39.83
2019-02-26T14:03:09.679Z,43.73
2019-02-26T14:05:40.354Z,36.33
2019-02-26T14:08:10.999Z,36.73
2019-02-26T14:10:41.794Z,40.80
2019-02-26T14:13:12.373Z,38.97
2019-02-26T14:15:43.108Z,40.43
2019-02-26T14:18:13.755Z,35.30
2019-02-26T14:20:45.515Z,32.50
2019-02-26T14:23:16.209Z,29.50
2019-02-26T14:25:46.978Z,32.63
2019-02-26T14:28:17.618Z,30.77
2019-02-26T14:30:48.268Z,32.10
2019-02-26T14:33:18.833Z,30.80
2019-02-26T14:35:49.529Z,32.60
2019-02-26T14:38:20.123Z,30.90
2019-02-26T14:40:50.683Z,34.70
2019-02-26T14:43:21.243Z,31.43
2019-02-26T14:45:52.079Z,35.57
2019-02-26T14:48:22.674Z,30.17
2019-02-26T14:50:53.439Z,29.17
2019-02-26T14:53:24.223Z,31.33
2019-02-26T14:55:55.074Z,31.13
2019-02-26T14:58:25.732Z,36.03
2019-02-26T15:00:57.881Z,32.80
2019-02-26T15:03:28.619Z,29.27
2019-02-26T15:05:59.294Z,30.83
2019-02-26T15:08:30.356Z,27.87
2019-02-26T15:11:01.089Z,28.87
2019-02-26T15:13:31.779Z,29.00
2019-02-26T15:16:02.594Z,33.20
2019-02-26T15:18:35.737Z,32.77
2019-02-26T15:21:05.719Z,31.30
2019-02-26T15:23:36.354Z,30.77
2019-02-26T15:26:07.129Z,31.43
2019-02-26T15:28:37.846Z,30.90
2019-02-26T15:31:08.665Z,29.63
2019-02-26T15:33:39.564Z,33.20
2019-02-26T15:36:10.429Z,30.40
2019-02-26T15:38:41.364Z,29.07
2019-02-26T15:41:12.169Z,28.53
2019-02-26T15:43:42.856Z,34.63
2019-02-26T15:46:13.559Z,32.47
2019-02-26T15:48:44.076Z,42.47
2019-02-26T15:51:19.909Z,75.27
2019-02-26T15:53:47.323Z,27.60
2019-02-26T15:56:18.170Z,29.07
2019-02-26T15:58:48.861Z,31.07
2019-02-26T16:01:19.994Z,26.20
2019-02-26T16:03:50.710Z,27.07
2019-02-26T16:06:21.394Z,24.70
2019-02-26T16:08:52.105Z,24.90
2019-02-26T16:11:22.839Z,31.80
2019-02-26T16:13:53.655Z,27.70
2019-02-26T16:16:24.449Z,25.20
2019-02-26T16:18:55.135Z,28.37
2019-02-26T16:21:25.979Z,27.07
2019-02-26T16:23:56.875Z,27.27
2019-02-26T16:26:33.955Z,36.83
2019-02-26T16:29:27.739Z,29.23
2019-02-26T16:31:58.340Z,43.83
2019-02-26T16:34:55.310Z,50.60
2019-02-26T16:37:24.830Z,35.77
2019-02-26T16:39:56.047Z,28.37
2019-02-26T16:42:27.825Z,28.33
2019-02-26T16:45:01.110Z,27.97
2019-02-26T16:47:30.970Z,25.27
2019-02-26T16:50:11.799Z,26.60
2019-02-26T16:52:34.120Z,24.40
2019-02-26T16:55:05.065Z,25.97
2019-02-26T16:57:35.705Z,28.90
2019-02-26T17:00:07.470Z,31.10
2019-02-26T17:02:38.340Z,33.30
2019-02-26T17:05:09.607Z,29.90
2019-02-26T17:07:41.602Z,30.40
2019-02-26T17:10:13.995Z,24.13
2019-02-26T17:12:46.220Z,27.67
2019-02-26T17:15:23.990Z,32.23
2019-02-26T17:17:54.135Z,27.37
2019-02-26T17:20:26.413Z,42.77
2019-02-26T17:22:57.186Z,32.57
2019-02-26T17:25:29.010Z,33.90
2019-02-26T17:27:59.769Z,56.07
2019-02-26T17:30:30.444Z,64.43
2019-02-26T17:33:01.295Z,41.77
2019-02-26T17:35:31.992Z,51.13
2019-02-26T17:38:02.750Z,49.53
2019-02-26T17:40:36.389Z,41.97
2019-02-26T17:43:06.505Z,44.53
2019-02-26T17:45:38.039Z,53.03
2019-02-26T17:48:08.780Z,45.70
2019-02-26T17:50:39.504Z,48.50
2019-02-26T17:53:11.598Z,52.20
2019-02-26T17:55:42.619Z,57.43
2019-02-26T17:58:13.499Z,52.60
2019-02-26T18:00:46.245Z,48.63
2019-02-26T18:03:17.030Z,52.20
2019-02-26T18:05:51.338Z,48.47
2019-02-26T18:08:20.520Z,53.63
2019-02-26T18:10:51.410Z,57.30
2019-02-26T18:13:22.084Z,50.77
2019-02-26T18:15:56.919Z,50.43
2019-02-26T18:18:26.195Z,46.87
2019-02-26T18:20:57.025Z,53.80
2019-02-26T18:23:27.945Z,62.87
2019-02-26T18:25:58.620Z,64.30
2019-02-26T18:28:29.352Z,54.37
2019-02-26T18:31:00.355Z,51.00
2019-02-26T18:33:31.109Z,52.00
2019-02-26T18:36:01.835Z,53.53
2019-02-26T18:38:32.580Z,38.13
2019-02-26T18:41:03.630Z,54.47
2019-02-26T18:43:34.454Z,81.67
2019-02-26T18:46:05.404Z,83.43
2019-02-26T18:48:36.529Z,54.07
2019-02-26T18:51:07.854Z,59.10
2019-02-26T18:53:38.735Z,49.10
2019-02-26T18:56:09.424Z,55.57
2019-02-26T18:58:40.195Z,45.43
2019-02-26T19:01:11.625Z,46.40
2019-02-26T19:03:42.354Z,47.43
2019-02-26T19:06:13.244Z,44.60
2019-02-26T19:08:43.919Z,43.50
2019-02-26T19:11:16.715Z,39.60
2019-02-26T19:13:47.304Z,41.33
2019-02-26T19:16:20.421Z,40.17
2019-02-26T19:18:51.039Z,37.47
2019-02-26T19:21:22.293Z,38.10
2019-02-26T19:23:53.127Z,35.20
2019-02-26T19:26:23.914Z,34.30
2019-02-26T19:28:56.757Z,37.53
2019-02-26T19:31:27.129Z,44.90
2019-02-26T19:33:58.227Z,34.17
2019-02-26T19:36:29.144Z,44.27
2019-02-26T19:39:00.975Z,37.63
2019-02-26T19:41:32.510Z,36.90
2019-02-26T19:44:03.430Z,38.57
2019-02-26T19:46:34.140Z,35.60
2019-02-26T19:49:05.788Z,32.53
2019-02-26T19:51:37.254Z,33.20
2019-02-26T19:54:08.139Z,32.33
2019-02-26T19:56:39.120Z,34.23
2019-02-26T19:59:13.472Z,33.37
2019-02-26T20:01:42.320Z,31.60
2019-02-26T20:04:14.675Z,44.03
2019-02-26T20:06:45.741Z,46.90
2019-02-26T20:09:17.445Z,40.13
2019-02-26T20:11:48.244Z,39.57
2019-02-26T20:14:21.659Z,73.60
2019-02-26T20:16:52.679Z,43.90
2019-02-26T20:19:23.535Z,43.67
2019-02-26T20:21:54.405Z,45.00
2019-02-26T20:24:25.231Z,44.37
2019-02-26T20:26:55.983Z,44.53
2019-02-26T20:29:27.870Z,43.87
2019-02-26T20:31:58.959Z,47.23
2019-02-26T20:34:29.939Z,50.47
2019-02-26T20:37:02.824Z,42.27
2019-02-26T20:39:33.755Z,38.60
2019-02-26T20:42:05.843Z,34.77
2019-02-26T20:44:37.285Z,42.63
2019-02-26T20:47:08.505Z,39.37
2019-02-26T20:49:39.655Z,47.13
2019-02-26T20:52:10.770Z,44.13
2019-02-26T20:54:44.426Z,35.43
2019-02-26T20:57:14.397Z,41.23
2019-02-26T20:59:45.155Z,43.13
2019-02-26T21:02:15.820Z,45.33
2019-02-26T21:04:46.684Z,38.23
2019-02-26T21:07:17.499Z,42.17
2019-02-26T21:09:48.329Z,41.17
2019-02-26T21:12:19.360Z,42.80
2019-02-26T21:14:50.355Z,45.47
2019-02-26T21:17:21.039Z,48.07
2019-02-26T21:19:51.725Z,43.13
2019-02-26T21:22:22.777Z,40.70
2019-02-26T21:24:53.419Z,47.00
2019-02-26T21:27:25.908Z,38.50
2019-02-26T21:29:56.515Z,37.40
2019-02-26T21:32:27.189Z,32.60
2019-02-26T21:34:57.964Z,32.83
2019-02-26T21:37:32.604Z,34.30
2019-02-26T21:40:01.035Z,40.83
2019-02-26T21:42:31.574Z,40.10
2019-02-26T21:45:02.259Z,44.17
2019-02-26T21:47:33.039Z,40.67
2019-02-26T21:50:03.734Z,43.57
2019-02-26T21:52:34.479Z,45.70
2019-02-26T21:55:05.214Z,39.63
2019-02-26T21:57:35.889Z,41.93
2019-02-26T22:00:07.299Z,48.03
2019-02-26T22:02:38.049Z,47.70
2019-02-26T22:05:09.264Z,44.07
2019-02-26T22:07:39.870Z,41.60
2019-02-26T22:10:11.975Z,39.57
2019-02-26T22:12:42.929Z,41.10
2019-02-26T22:15:15.569Z,43.07
2019-02-26T22:17:46.694Z,40.90
2019-02-26T22:20:23.699Z,34.87
2019-02-26T22:22:49.705Z,50.17
2019-02-26T22:25:20.572Z,39.83
2019-02-26T22:27:51.159Z,42.63
2019-02-26T22:30:22.871Z,39.43
2019-02-26T22:32:53.684Z,47.97
2019-02-26T22:35:25.921Z,45.33
2019-02-26T22:37:56.594Z,40.13
2019-02-26T22:40:29.198Z,55.17
2019-02-26T22:42:59.539Z,42.60
2019-02-26T22:45:30.349Z,39.90
2019-02-26T22:48:01.104Z,46.00
2019-02-26T22:50:31.859Z,45.33
2019-02-26T22:53:04.060Z,39.30
2019-02-26T22:55:34.804Z,51.83
2019-02-26T22:58:05.545Z,49.80
2019-02-26T23:01:12.759Z,46.93
2019-02-26T23:03:45.739Z,43.23
2019-02-26T23:06:15.974Z,47.57
2019-02-26T23:08:46.700Z,52.20
2019-02-26T23:11:17.614Z,44.87
2019-02-26T23:13:48.222Z,43.90
2019-02-26T23:16:19.150Z,43.97
2019-02-26T23:18:50.094Z,43.03
2019-02-26T23:21:20.794Z,40.13
2019-02-26T23:23:54.662Z,43.53
2019-02-26T23:26:23.545Z,42.37
2019-02-26T23:28:54.971Z,39.03
2019-02-26T23:31:26.515Z,41.70
2019-02-26T23:33:57.277Z,39.83
2019-02-26T23:36:28.599Z,48.80
2019-02-26T23:38:59.559Z,42.43
2019-02-26T23:41:30.802Z,44.17
2019-02-26T23:44:02.409Z,43.10
2019-02-26T23:46:33.109Z,44.93
2019-02-26T23:49:03.747Z,37.03
2019-02-26T23:51:34.397Z,42.60
2019-02-26T23:54:07.317Z,40.23
2019-02-26T23:56:37.693Z,37.73
2019-02-26T23:59:08.565Z,37.47
